Time;durP1;ratioP1;P1;durP2;ratioP2;P2;SDS_P1;SDS_P2;PMS_P1;PMS_P2;Temp;Humidity;BMP_temperature;BMP_pressure;BME280_temperature;BME280_humidity;BME280_pressure;Samples;Min_cycle;Max_cycle;Signal;HPM_P1;HPM_P2
2023/12/10 00:00:57;;;;;;;9.63;2.10;;;;;;;;;;4855294;29;20048;-57
2023/12/10 00:03:23;;;;;;;13.65;2.45;;;;;;;;;;4877452;29;20045;-55
2023/12/10 00:05:50;;;;;;;12.30;2.35;;;;;;;;;;4858419;29;20053;-58
2023/12/10 00:08:16;;;;;;;13.13;2.42;;;;;;;;;;4875951;29;20052;-57
2023/12/10 00:10:42;;;;;;;17.35;2.70;;;;;;;;;;4861780;29;20127;-56
2023/12/10 00:13:11;;;;;;;9.30;1.90;;;;;;;;;;4860788;29;20088;-54
2023/12/10 00:15:38;;;;;;;11.57;1.67;;;;;;;;;;4860757;29;20052;-57
2023/12/10 00:18:05;;;;;;;6.85;2.00;;;;;;;;;;4877485;29;20045;-56
2023/12/10 00:20:31;;;;;;;9.00;1.52;;;;;;;;;;4877159;29;20060;-56
2023/12/10 00:22:57;;;;;;;6.20;1.50;;;;;;;;;;4873639;29;20041;-55
2023/12/10 00:25:26;;;;;;;13.70;1.85;;;;;;;;;;4860418;29;20049;-58
2023/12/10 00:27:52;;;;;;;8.25;1.75;;;;;;;;;;4857423;29;20056;-55
2023/12/10 00:30:18;;;;;;;10.20;1.63;;;;;;;;;;4874572;29;20064;-57
2023/12/10 00:32:44;;;;;;;6.95;1.52;;;;;;;;;;4875018;29;20127;-56
2023/12/10 00:35:11;;;;;;;10.68;1.92;;;;;;;;;;4859755;29;20029;-57
2023/12/10 00:37:37;;;;;;;10.75;1.83;;;;;;;;;;4866358;29;20057;-57
2023/12/10 00:40:06;;;;;;;16.60;2.50;;;;;;;;;;4855268;29;20049;-58
2023/12/10 00:42:32;;;;;;;10.37;1.70;;;;;;;;;;4872862;29;20052;-56
2023/12/10 00:44:58;;;;;;;9.75;2.17;;;;;;;;;;4875563;29;20405;-57
2023/12/10 00:47:24;;;;;;;11.27;1.85;;;;;;;;;;4873589;29;20060;-57
2023/12/10 00:49:51;;;;;;;13.05;2.78;;;;;;;;;;4858108;29;20040;-55
2023/12/10 00:52:17;;;;;;;15.52;2.10;;;;;;;;;;4872382;29;20057;-56
2023/12/10 00:54:43;;;;;;;17.15;2.65;;;;;;;;;;4857014;29;20517;-58
2023/12/10 00:57:12;;;;;;;19.88;2.33;;;;;;;;;;4870951;29;20040;-55
2023/12/10 00:59:38;;;;;;;10.47;2.17;;;;;;;;;;4851844;29;20127;-56
2023/12/10 01:02:04;;;;;;;13.95;1.92;;;;;;;;;;4859332;29;20064;-58
2023/12/10 01:04:31;;;;;;;12.65;2.30;;;;;;;;;;4872811;29;20052;-56
2023/12/10 01:06:57;;;;;;;17.63;2.33;;;;;;;;;;4863885;29;20051;-56
2023/12/10 01:09:23;;;;;;;15.40;2.42;;;;;;;;;;4864765;29;20041;-56
2023/12/10 01:11:49;;;;;;;17.25;3.03;;;;;;;;;;4847224;29;20033;-57
2023/12/10 01:14:15;;;;;;;15.10;1.85;;;;;;;;;;4846742;29;20057;-55
2023/12/10 01:16:42;;;;;;;15.02;2.10;;;;;;;;;;4859318;29;20068;-54
2023/12/10 01:19:08;;;;;;;12.45;2.55;;;;;;;;;;4860673;29;20134;-56
2023/12/10 01:21:34;;;;;;;20.20;2.75;;;;;;;;;;4855651;29;20033;-56
2023/12/10 01:24:00;;;;;;;12.02;2.50;;;;;;;;;;4840391;29;20606;-56
2023/12/10 01:26:27;;;;;;;19.52;3.03;;;;;;;;;;4861497;29;20037;-58
2023/12/10 01:28:53;;;;;;;17.15;2.95;;;;;;;;;;4875232;29;20043;-56
2023/12/10 01:31:19;;;;;;;14.90;2.03;;;;;;;;;;4847057;29;20513;-56
2023/12/10 01:33:46;;;;;;;16.58;3.28;;;;;;;;;;4860881;29;20053;-55
2023/12/10 01:36:23;;;;;;;22.13;3.10;;;;;;;;;;4870545;29;20040;-56
2023/12/10 01:38:50;;;;;;;14.35;2.42;;;;;;;;;;4860844;29;20052;-59
2023/12/10 01:41:18;;;;;;;15.85;3.10;;;;;;;;;;4814371;29;20524;-58
2023/12/10 01:43:45;;;;;;;19.33;2.90;;;;;;;;;;4880153;29;20049;-55
2023/12/10 01:46:12;;;;;;;15.80;2.20;;;;;;;;;;4862815;29;20052;-56
2023/12/10 01:48:41;;;;;;;22.45;2.70;;;;;;;;;;4878291;29;20052;-57
2023/12/10 01:51:08;;;;;;;21.15;2.40;;;;;;;;;;4839980;29;20225;-57
2023/12/10 01:53:34;;;;;;;22.10;3.00;;;;;;;;;;4840946;29;20048;-58
2023/12/10 01:56:01;;;;;;;14.60;2.35;;;;;;;;;;4853953;29;20047;-56
2023/12/10 01:58:27;;;;;;;25.52;4.60;;;;;;;;;;4828555;29;20045;-55
2023/12/10 02:00:53;;;;;;;15.15;2.20;;;;;;;;;;4861424;29;20045;-56
2023/12/10 02:03:20;;;;;;;23.23;2.58;;;;;;;;;;4864363;29;20045;-57
2023/12/10 02:05:46;;;;;;;12.98;2.65;;;;;;;;;;4815966;29;20052;-55
2023/12/10 02:08:12;;;;;;;20.70;3.20;;;;;;;;;;4876139;29;20053;-55
2023/12/10 02:10:40;;;;;;;19.42;2.33;;;;;;;;;;4879018;29;20052;-57
2023/12/10 02:13:07;;;;;;;22.30;2.60;;;;;;;;;;4882354;29;20048;-58
2023/12/10 02:15:33;;;;;;;22.58;3.30;;;;;;;;;;4861799;29;20045;-57
2023/12/10 02:17:59;;;;;;;21.70;3.05;;;;;;;;;;4877364;29;20049;-55
2023/12/10 02:20:25;;;;;;;23.40;3.08;;;;;;;;;;4860442;29;20043;-57
2023/12/10 02:23:34;;;;;;;14.18;2.50;;;;;;;;;;4859905;29;20049;-58
2023/12/10 02:26:00;;;;;;;22.85;3.13;;;;;;;;;;4850551;29;20053;-57
2023/12/10 02:28:27;;;;;;;24.25;2.80;;;;;;;;;;4847796;29;20053;-57
2023/12/10 02:30:53;;;;;;;20.10;2.50;;;;;;;;;;4877944;29;20961;-54
2023/12/10 02:33:19;;;;;;;23.65;3.63;;;;;;;;;;4876708;29;20065;-55
2023/12/10 02:35:45;;;;;;;14.90;2.55;;;;;;;;;;4861607;29;20044;-55
2023/12/10 02:38:11;;;;;;;19.63;3.22;;;;;;;;;;4876084;29;20041;-55
2023/12/10 02:40:38;;;;;;;21.75;2.78;;;;;;;;;;4880850;29;20516;-55
2023/12/10 02:43:04;;;;;;;27.63;3.40;;;;;;;;;;4877476;29;20524;-57
2023/12/10 02:45:30;;;;;;;24.65;3.58;;;;;;;;;;4873656;29;20053;-56
2023/12/10 02:47:57;;;;;;;12.18;2.47;;;;;;;;;;4861365;29;20045;-57
2023/12/10 02:50:24;;;;;;;18.83;2.63;;;;;;;;;;4862504;29;20063;-57
2023/12/10 02:52:50;;;;;;;19.20;2.90;;;;;;;;;;4859457;29;20522;-57
2023/12/10 02:55:16;;;;;;;18.05;2.72;;;;;;;;;;4873853;29;20052;-59
2023/12/10 02:57:42;;;;;;;16.92;3.40;;;;;;;;;;4862626;29;20134;-57
2023/12/10 03:00:09;;;;;;;19.83;2.60;;;;;;;;;;4874108;29;20059;-56
2023/12/10 03:02:35;;;;;;;13.13;2.47;;;;;;;;;;4873230;29;20048;-56
2023/12/10 03:05:01;;;;;;;15.50;2.42;;;;;;;;;;4879073;29;20033;-56
2023/12/10 03:07:27;;;;;;;14.40;2.50;;;;;;;;;;4863645;29;20056;-58
2023/12/10 03:09:53;;;;;;;17.83;2.10;;;;;;;;;;4862130;29;20045;-56
2023/12/10 03:12:20;;;;;;;15.65;2.60;;;;;;;;;;4865385;29;20045;-57
2023/12/10 03:14:46;;;;;;;13.35;2.28;;;;;;;;;;4877281;29;20041;-58
2023/12/10 03:17:12;;;;;;;14.38;2.08;;;;;;;;;;4881959;29;20044;-59
2023/12/10 03:19:38;;;;;;;10.30;2.08;;;;;;;;;;4876630;29;20048;-58
2023/12/10 03:22:04;;;;;;;12.82;2.05;;;;;;;;;;4860404;29;20048;-59
2023/12/10 03:24:30;;;;;;;10.93;1.80;;;;;;;;;;4878185;29;20048;-58
2023/12/10 03:26:57;;;;;;;8.02;2.22;;;;;;;;;;4876599;29;20075;-57
2023/12/10 03:29:23;;;;;;;8.90;1.50;;;;;;;;;;4847923;29;20048;-58
2023/12/10 03:31:49;;;;;;;9.70;1.70;;;;;;;;;;4878048;29;20068;-58
2023/12/10 03:34:15;;;;;;;14.75;1.92;;;;;;;;;;4873784;29;21232;-57
2023/12/10 03:36:41;;;;;;;18.40;2.45;;;;;;;;;;4857900;29;20037;-55
2023/12/10 03:39:08;;;;;;;11.77;2.13;;;;;;;;;;4860530;29;20044;-57
2023/12/10 03:41:34;;;;;;;14.13;1.90;;;;;;;;;;4858772;29;20049;-57
2023/12/10 03:44:00;;;;;;;9.30;1.50;;;;;;;;;;4859401;29;20040;-57
2023/12/10 03:46:26;;;;;;;10.77;1.92;;;;;;;;;;4874597;29;20053;-57
2023/12/10 03:48:53;;;;;;;11.15;1.60;;;;;;;;;;4872609;29;20065;-55
2023/12/10 03:51:19;;;;;;;12.75;1.80;;;;;;;;;;4863597;29;20060;-56
2023/12/10 03:53:46;;;;;;;11.60;2.08;;;;;;;;;;4857796;29;20040;-56
2023/12/10 03:56:12;;;;;;;12.43;1.70;;;;;;;;;;4859628;29;20048;-54
2023/12/10 03:58:38;;;;;;;12.70;1.98;;;;;;;;;;4846274;29;20072;-56
2023/12/10 04:01:04;;;;;;;15.40;1.90;;;;;;;;;;4868144;29;20061;-55
2023/12/10 04:03:31;;;;;;;11.95;1.73;;;;;;;;;;4880029;29;20068;-55
2023/12/10 04:05:57;;;;;;;11.48;2.40;;;;;;;;;;4874279;29;20327;-56
2023/12/10 04:08:23;;;;;;;10.15;1.58;;;;;;;;;;4878176;29;20041;-59
2023/12/10 04:10:49;;;;;;;9.40;1.80;;;;;;;;;;4876715;29;20080;-58
2023/12/10 04:13:15;;;;;;;11.15;1.60;;;;;;;;;;4876519;29;20049;-58
2023/12/10 04:15:44;;;;;;;14.43;2.10;;;;;;;;;;4874909;29;20037;-55
2023/12/10 04:18:11;;;;;;;10.57;1.88;;;;;;;;;;4858138;29;20049;-55
2023/12/10 04:20:37;;;;;;;13.45;2.00;;;;;;;;;;4874966;29;20040;-57
2023/12/10 04:23:03;;;;;;;9.18;2.22;;;;;;;;;;4848297;29;20045;-59
2023/12/10 04:25:29;;;;;;;16.13;1.95;;;;;;;;;;4877138;29;20416;-58
2023/12/10 04:27:56;;;;;;;12.10;2.30;;;;;;;;;;4874069;29;20045;-58
2023/12/10 04:30:24;;;;;;;15.80;2.00;;;;;;;;;;4876934;29;20036;-56
2023/12/10 04:32:50;;;;;;;12.15;2.30;;;;;;;;;;4862811;29;20061;-58
2023/12/10 04:35:16;;;;;;;12.90;1.80;;;;;;;;;;4873448;29;20053;-56
2023/12/10 04:37:43;;;;;;;15.93;2.13;;;;;;;;;;4877502;29;20036;-56
2023/12/10 04:40:10;;;;;;;6.53;1.60;;;;;;;;;;4877613;29;20053;-56
2023/12/10 04:42:38;;;;;;;20.17;2.13;;;;;;;;;;4876160;29;20053;-55
2023/12/10 04:45:08;;;;;;;13.27;2.08;;;;;;;;;;4843492;29;20045;-55
2023/12/10 04:47:37;;;;;;;13.18;2.03;;;;;;;;;;4842817;29;20041;-56
2023/12/10 04:50:04;;;;;;;16.20;1.98;;;;;;;;;;4874613;29;20037;-58
2023/12/10 04:52:32;;;;;;;8.73;1.48;;;;;;;;;;4875476;29;20052;-55
2023/12/10 04:54:59;;;;;;;11.65;1.67;;;;;;;;;;4870579;29;20132;-58
2023/12/10 04:57:25;;;;;;;15.15;1.77;;;;;;;;;;4877071;29;20055;-57
2023/12/10 04:59:52;;;;;;;8.50;1.90;;;;;;;;;;4861374;29;20044;-55
2023/12/10 05:02:18;;;;;;;17.25;1.70;;;;;;;;;;4836194;29;20048;-55
2023/12/10 05:04:44;;;;;;;12.45;1.73;;;;;;;;;;4822376;29;20048;-57
2023/12/10 05:07:10;;;;;;;10.02;1.75;;;;;;;;;;4880191;29;20040;-56
2023/12/10 05:09:37;;;;;;;9.07;1.70;;;;;;;;;;4862973;29;20032;-57
2023/12/10 05:12:03;;;;;;;10.38;1.85;;;;;;;;;;4881879;29;20063;-58
2023/12/10 05:14:29;;;;;;;11.73;2.22;;;;;;;;;;4847767;29;20107;-56
2023/12/10 05:16:55;;;;;;;11.30;1.95;;;;;;;;;;4859480;29;20675;-55
2023/12/10 05:19:21;;;;;;;12.10;1.95;;;;;;;;;;4879188;29;20045;-55
2023/12/10 05:21:48;;;;;;;14.65;2.50;;;;;;;;;;4863583;29;20044;-55
2023/12/10 05:24:14;;;;;;;7.80;1.83;;;;;;;;;;4877463;29;20029;-56
2023/12/10 05:26:40;;;;;;;13.55;2.10;;;;;;;;;;4863671;29;20056;-57
2023/12/10 05:29:06;;;;;;;13.50;2.22;;;;;;;;;;4866130;29;20053;-57
2023/12/10 05:31:33;;;;;;;9.30;2.00;;;;;;;;;;4879449;29;20060;-58
2023/12/10 05:33:59;;;;;;;15.05;2.17;;;;;;;;;;4878792;29;20046;-56
2023/12/10 05:36:25;;;;;;;17.30;2.38;;;;;;;;;;4864396;29;20068;-56
2023/12/10 05:38:51;;;;;;;10.25;2.28;;;;;;;;;;4876887;29;20063;-55
2023/12/10 05:41:17;;;;;;;13.85;2.25;;;;;;;;;;4877911;29;20167;-59
2023/12/10 05:43:44;;;;;;;8.95;1.50;;;;;;;;;;4848641;29;20405;-56
2023/12/10 05:46:10;;;;;;;12.63;1.83;;;;;;;;;;4879196;29;20055;-57
2023/12/10 05:48:36;;;;;;;11.50;2.17;;;;;;;;;;4876722;29;20053;-59
2023/12/10 05:51:03;;;;;;;13.98;2.95;;;;;;;;;;4873359;29;20071;-57
2023/12/10 05:53:29;;;;;;;15.45;2.42;;;;;;;;;;4878839;29;20059;-55
2023/12/10 05:55:55;;;;;;;8.32;2.05;;;;;;;;;;4875643;29;20060;-56
2023/12/10 05:58:22;;;;;;;11.88;1.75;;;;;;;;;;4878208;29;20064;-55
2023/12/10 06:00:48;;;;;;;12.90;1.60;;;;;;;;;;4878196;29;20043;-57
2023/12/10 06:03:14;;;;;;;12.55;1.80;;;;;;;;;;4866552;29;20048;-55
2023/12/10 06:05:41;;;;;;;19.38;2.45;;;;;;;;;;4879957;29;20045;-57
2023/12/10 06:08:09;;;;;;;12.48;1.90;;;;;;;;;;4877595;29;20052;-55
2023/12/10 06:10:36;;;;;;;10.60;1.55;;;;;;;;;;4875862;29;20061;-57
2023/12/10 06:13:02;;;;;;;7.57;1.40;;;;;;;;;;4878626;29;20052;-55
2023/12/10 06:15:29;;;;;;;12.52;2.67;;;;;;;;;;4862693;29;20053;-57
2023/12/10 06:17:55;;;;;;;11.32;1.90;;;;;;;;;;4879497;29;20230;-58
2023/12/10 06:20:21;;;;;;;10.88;1.95;;;;;;;;;;4875579;29;20060;-57
2023/12/10 06:22:47;;;;;;;11.93;1.83;;;;;;;;;;4864491;29;20048;-57
2023/12/10 06:25:14;;;;;;;15.48;2.50;;;;;;;;;;4862181;29;20041;-56
2023/12/10 06:27:40;;;;;;;13.00;1.92;;;;;;;;;;4859488;29;20049;-57
2023/12/10 06:30:08;;;;;;;9.25;1.90;;;;;;;;;;4879628;29;20395;-57
2023/12/10 06:32:35;;;;;;;12.85;2.30;;;;;;;;;;4836988;29;20033;-57
2023/12/10 06:35:01;;;;;;;12.60;3.25;;;;;;;;;;4860713;29;20041;-57
2023/12/10 06:37:27;;;;;;;8.55;1.85;;;;;;;;;;4878133;29;20042;-56
2023/12/10 06:39:54;;;;;;;9.63;2.03;;;;;;;;;;4862272;29;20060;-55
2023/12/10 06:42:20;;;;;;;11.25;2.03;;;;;;;;;;4862191;29;20494;-55
2023/12/10 06:44:46;;;;;;;10.43;1.73;;;;;;;;;;4878960;29;20080;-55
2023/12/10 06:47:12;;;;;;;12.05;2.13;;;;;;;;;;4879431;29;20053;-57
2023/12/10 06:49:38;;;;;;;12.13;1.83;;;;;;;;;;4863931;29;20048;-55
2023/12/10 06:52:05;;;;;;;12.07;1.63;;;;;;;;;;4874692;29;20045;-58
2023/12/10 06:54:31;;;;;;;9.55;1.65;;;;;;;;;;4878458;29;20056;-57
2023/12/10 06:56:57;;;;;;;12.32;1.88;;;;;;;;;;4876996;29;20048;-55
2023/12/10 06:59:23;;;;;;;14.43;2.13;;;;;;;;;;4879252;29;20063;-55
2023/12/10 07:01:50;;;;;;;15.88;2.50;;;;;;;;;;4867150;29;20049;-59
2023/12/10 07:04:16;;;;;;;11.85;2.10;;;;;;;;;;4861191;29;20057;-57
2023/12/10 07:06:42;;;;;;;9.77;1.52;;;;;;;;;;4861278;29;20063;-58
2023/12/10 07:09:09;;;;;;;7.45;2.03;;;;;;;;;;4860353;29;20052;-55
2023/12/10 07:11:35;;;;;;;10.45;1.60;;;;;;;;;;4845000;29;20052;-56
2023/12/10 07:14:02;;;;;;;15.85;2.22;;;;;;;;;;4873877;29;20043;-57
2023/12/10 07:16:28;;;;;;;24.73;2.75;;;;;;;;;;4845011;29;20040;-60
2023/12/10 07:18:54;;;;;;;14.60;1.70;;;;;;;;;;4876372;29;20382;-57
2023/12/10 07:21:20;;;;;;;15.85;2.05;;;;;;;;;;4878790;29;20060;-57
2023/12/10 07:23:46;;;;;;;12.02;1.95;;;;;;;;;;4879075;29;20040;-57
2023/12/10 07:26:13;;;;;;;10.18;2.20;;;;;;;;;;4879568;29;20061;-57
2023/12/10 07:28:39;;;;;;;8.10;1.85;;;;;;;;;;4877512;29;20052;-56
2023/12/10 07:31:05;;;;;;;10.10;1.80;;;;;;;;;;4879748;29;20036;-55
2023/12/10 07:33:32;;;;;;;16.67;2.47;;;;;;;;;;4876760;29;20072;-58
2023/12/10 07:35:58;;;;;;;11.60;1.77;;;;;;;;;;4876080;29;20051;-57
2023/12/10 07:38:24;;;;;;;8.63;1.70;;;;;;;;;;4857245;29;20049;-55
2023/12/10 07:40:50;;;;;;;13.63;1.77;;;;;;;;;;4872012;29;20037;-58
2023/12/10 07:43:17;;;;;;;13.02;2.40;;;;;;;;;;4865261;29;20075;-58
2023/12/10 07:45:43;;;;;;;13.25;2.00;;;;;;;;;;4879402;29;20041;-55
2023/12/10 07:48:09;;;;;;;11.68;2.10;;;;;;;;;;4862441;29;20049;-56
2023/12/10 07:50:35;;;;;;;10.30;2.03;;;;;;;;;;4847292;29;20045;-56
2023/12/10 07:53:02;;;;;;;9.88;1.67;;;;;;;;;;4879710;29;20045;-56
2023/12/10 07:55:28;;;;;;;10.75;1.52;;;;;;;;;;4864224;29;20057;-59
2023/12/10 07:57:55;;;;;;;13.60;2.47;;;;;;;;;;4864561;29;20052;-56
2023/12/10 08:00:21;;;;;;;10.90;2.42;;;;;;;;;;4878282;29;20052;-56
2023/12/10 08:02:47;;;;;;;12.23;1.80;;;;;;;;;;4855420;29;20052;-56
2023/12/10 08:05:14;;;;;;;11.43;2.05;;;;;;;;;;4861240;29;20044;-56
2023/12/10 08:07:40;;;;;;;8.77;1.98;;;;;;;;;;4860114;29;20052;-57
2023/12/10 08:10:07;;;;;;;8.05;1.85;;;;;;;;;;4861061;29;20040;-56
2023/12/10 08:12:34;;;;;;;8.25;2.05;;;;;;;;;;4845398;29;20438;-56
2023/12/10 08:15:00;;;;;;;10.32;1.70;;;;;;;;;;4877088;29;20045;-56
2023/12/10 08:17:27;;;;;;;13.35;2.33;;;;;;;;;;4877623;29;20049;-57
2023/12/10 08:19:53;;;;;;;13.13;2.05;;;;;;;;;;4860439;29;20048;-59
2023/12/10 08:22:19;;;;;;;12.52;2.00;;;;;;;;;;4858765;29;20052;-59
2023/12/10 08:24:45;;;;;;;5.55;1.55;;;;;;;;;;4876766;29;20122;-57
2023/12/10 08:27:12;;;;;;;10.10;1.95;;;;;;;;;;4861323;29;20056;-55
2023/12/10 08:29:38;;;;;;;10.48;1.50;;;;;;;;;;4878169;29;20060;-54
2023/12/10 08:32:05;;;;;;;9.77;1.77;;;;;;;;;;4875448;29;20040;-53
2023/12/10 08:34:31;;;;;;;8.50;1.73;;;;;;;;;;4877342;29;20059;-55
2023/12/10 08:36:58;;;;;;;8.85;1.63;;;;;;;;;;4859307;29;20052;-57
2023/12/10 08:39:24;;;;;;;8.55;1.65;;;;;;;;;;4876701;29;20052;-55
2023/12/10 08:41:52;;;;;;;8.88;1.55;;;;;;;;;;4861494;29;20037;-56
2023/12/10 08:44:18;;;;;;;10.00;1.65;;;;;;;;;;4879446;29;20064;-55
2023/12/10 08:46:44;;;;;;;11.70;2.53;;;;;;;;;;4859797;29;20056;-58
2023/12/10 08:49:10;;;;;;;11.60;2.50;;;;;;;;;;4860073;29;20099;-55
2023/12/10 08:51:36;;;;;;;9.05;1.90;;;;;;;;;;4855869;29;20050;-57
2023/12/10 08:54:03;;;;;;;10.52;1.75;;;;;;;;;;4845491;29;20036;-57
2023/12/10 08:56:29;;;;;;;9.68;1.40;;;;;;;;;;4877805;29;20425;-55
2023/12/10 08:58:55;;;;;;;9.65;1.52;;;;;;;;;;4877604;29;20057;-57
2023/12/10 09:01:22;;;;;;;5.53;1.35;;;;;;;;;;4874879;29;20543;-55
2023/12/10 09:03:48;;;;;;;11.32;1.70;;;;;;;;;;4879123;29;20378;-56
2023/12/10 09:06:15;;;;;;;12.85;1.80;;;;;;;;;;4876271;29;20053;-54
2023/12/10 09:08:41;;;;;;;8.43;1.85;;;;;;;;;;4842608;29;20033;-54
2023/12/10 09:11:08;;;;;;;13.23;1.92;;;;;;;;;;4843208;29;20719;-55
2023/12/10 09:13:37;;;;;;;9.98;1.70;;;;;;;;;;4871683;29;20049;-55
2023/12/10 09:16:04;;;;;;;8.43;1.90;;;;;;;;;;4874578;29;20501;-56
2023/12/10 09:18:30;;;;;;;8.93;2.00;;;;;;;;;;4873580;29;20041;-56
2023/12/10 09:20:56;;;;;;;7.18;1.45;;;;;;;;;;4860470;29;20060;-57
2023/12/10 09:23:23;;;;;;;9.30;2.30;;;;;;;;;;4877503;29;20107;-57
2023/12/10 09:25:49;;;;;;;6.53;1.98;;;;;;;;;;4876474;29;20291;-55
2023/12/10 09:28:15;;;;;;;7.60;1.88;;;;;;;;;;4842637;29;20118;-56
2023/12/10 09:30:42;;;;;;;12.93;2.90;;;;;;;;;;4873610;29;20064;-56
2023/12/10 09:33:09;;;;;;;6.60;1.08;;;;;;;;;;4860013;29;20037;-56
2023/12/10 09:35:35;;;;;;;7.72;2.08;;;;;;;;;;4873952;29;20488;-57
2023/12/10 09:38:03;;;;;;;6.90;1.70;;;;;;;;;;4842853;29;20044;-56
2023/12/10 09:40:31;;;;;;;12.00;3.35;;;;;;;;;;4876033;29;20041;-54
2023/12/10 09:42:58;;;;;;;5.70;1.90;;;;;;;;;;4860310;29;20057;-55
2023/12/10 09:45:24;;;;;;;4.13;1.10;;;;;;;;;;4874493;29;20052;-54
2023/12/10 09:47:50;;;;;;;4.20;1.10;;;;;;;;;;4872297;29;20059;-57
2023/12/10 09:50:21;;;;;;;5.13;1.30;;;;;;;;;;4838494;29;20091;-55
2023/12/10 09:52:47;;;;;;;6.30;1.30;;;;;;;;;;4865184;29;20048;-56
2023/12/10 09:55:13;;;;;;;9.02;1.65;;;;;;;;;;4876617;29;20045;-54
2023/12/10 09:57:39;;;;;;;6.50;1.50;;;;;;;;;;4879269;29;20497;-56
2023/12/10 10:00:06;;;;;;;8.02;1.60;;;;;;;;;;4911050;23;20422;-78
2023/12/10 10:02:33;;;;;;;8.73;1.52;;;;;;;;;;4931373;29;20246;-76
2023/12/10 10:05:01;;;;;;;7.93;1.48;;;;;;;;;;4946112;29;20036;-78
2023/12/10 10:07:29;;;;;;;9.70;1.60;;;;;;;;;;4942304;29;20046;-77
2023/12/10 10:09:55;;;;;;;8.75;1.63;;;;;;;;;;4918744;29;20047;-77
2023/12/10 10:12:31;;;;;;;5.15;1.20;;;;;;;;;;4920858;29;20059;-77
2023/12/10 10:14:58;;;;;;;5.05;1.13;;;;;;;;;;4917939;29;20412;-76
2023/12/10 10:17:33;;;;;;;6.55;1.70;;;;;;;;;;4901007;29;20040;-78
2023/12/10 10:19:59;;;;;;;5.30;1.48;;;;;;;;;;4887601;29;20504;-77
2023/12/10 10:22:27;;;;;;;8.02;1.88;;;;;;;;;;4917829;29;20610;-77
2023/12/10 10:24:57;;;;;;;5.78;1.75;;;;;;;;;;4926008;29;20500;-76
2023/12/10 10:27:23;;;;;;;5.32;1.73;;;;;;;;;;4936075;29;20040;-78
2023/12/10 10:29:53;;;;;;;8.70;1.40;;;;;;;;;;4890358;29;20346;-78
2023/12/10 10:32:20;;;;;;;;;;;;;;;;;;4922187;29;20044;-77
2023/12/10 10:34:47;;;;;;;4.13;0.90;;;;;;;;;;4914690;29;19926;-77
2023/12/10 10:37:17;;;;;;;9.15;1.48;;;;;;;;;;4907337;29;20443;-78
2023/12/10 10:39:45;;;;;;;10.38;3.20;;;;;;;;;;4903564;29;20527;-77
2023/12/10 10:42:12;;;;;;;9.63;3.85;;;;;;;;;;4924017;29;20052;-77
2023/12/10 10:44:46;;;;;;;5.85;1.15;;;;;;;;;;4888250;29;20051;-77
2023/12/10 10:47:12;;;;;;;10.75;2.13;;;;;;;;;;4912057;29;20044;-77
2023/12/10 10:49:44;;;;;;;18.42;1.95;;;;;;;;;;4881448;29;20048;-78
2023/12/10 10:52:19;;;;;;;10.30;1.35;;;;;;;;;;4911848;29;20039;-78
2023/12/10 10:54:46;;;;;;;11.88;1.50;;;;;;;;;;4916184;29;20028;-77
2023/12/10 10:57:13;;;;;;;6.60;1.20;;;;;;;;;;4923770;29;20051;-77
2023/12/10 10:59:45;;;;;;;12.63;1.75;;;;;;;;;;4922563;29;20043;-77
2023/12/10 11:02:14;;;;;;;7.80;1.50;;;;;;;;;;4934557;29;20048;-77
2023/12/10 11:04:41;;;;;;;4.97;1.40;;;;;;;;;;4905371;29;20439;-78
2023/12/10 11:07:08;;;;;;;8.15;1.55;;;;;;;;;;4892004;29;20047;-78
2023/12/10 11:10:00;;;;;;;4.88;1.45;;;;;;;;;;4924355;29;20051;-78
2023/12/10 11:12:39;;;;;;;7.38;1.70;;;;;;;;;;4921518;29;20411;-78
2023/12/10 11:15:17;;;;;;;5.47;1.20;;;;;;;;;;4923582;29;20510;-77
2023/12/10 11:18:05;;;;;;;7.53;1.52;;;;;;;;;;4931556;29;20036;-77
2023/12/10 11:20:37;;;;;;;7.30;1.48;;;;;;;;;;4896516;29;20047;-77
2023/12/10 11:23:05;;;;;;;4.43;1.15;;;;;;;;;;4901760;29;20212;-78
2023/12/10 11:25:32;;;;;;;6.53;1.60;;;;;;;;;;4907975;29;20052;-78
2023/12/10 11:28:28;;;;;;;8.40;1.50;;;;;;;;;;4922057;29;20036;-77
2023/12/10 11:30:54;;;;;;;8.65;1.52;;;;;;;;;;4927189;29;20051;-77
2023/12/10 11:33:21;;;;;;;6.65;1.30;;;;;;;;;;4930749;29;20043;-77
2023/12/10 11:35:47;;;;;;;6.28;1.15;;;;;;;;;;4894102;29;20051;-77
2023/12/10 11:38:20;;;;;;;6.93;1.35;;;;;;;;;;4924400;29;20420;-77
2023/12/10 11:40:46;;;;;;;10.25;1.67;;;;;;;;;;4901385;29;20040;-78
2023/12/10 11:43:16;;;;;;;19.00;3.65;;;;;;;;;;4894340;29;20040;-76
2023/12/10 11:45:42;;;;;;;6.95;1.55;;;;;;;;;;4912790;29;20439;-77
2023/12/10 11:48:08;;;;;;;5.93;1.45;;;;;;;;;;4934112;23;20048;-58
2023/12/10 11:50:39;;;;;;;4.47;1.70;;;;;;;;;;4940086;28;20055;-55
2023/12/10 11:53:06;;;;;;;9.52;2.65;;;;;;;;;;4952298;28;20051;-56
2023/12/10 11:55:33;;;;;;;8.02;1.63;;;;;;;;;;4951757;28;20435;-54
2023/12/10 11:57:59;;;;;;;13.02;1.92;;;;;;;;;;4947381;28;20038;-56
2023/12/10 12:00:25;;;;;;;9.68;1.55;;;;;;;;;;4954077;28;20054;-52
2023/12/10 12:02:52;;;;;;;7.38;1.80;;;;;;;;;;4947104;28;20039;-55
2023/12/10 12:05:19;;;;;;;6.82;1.73;;;;;;;;;;4919305;29;20066;-53
2023/12/10 12:07:48;;;;;;;6.35;1.65;;;;;;;;;;4950517;28;20047;-54
2023/12/10 12:10:17;;;;;;;4.57;1.20;;;;;;;;;;4932676;29;20058;-54
2023/12/10 12:12:45;;;;;;;8.38;1.20;;;;;;;;;;4951305;28;20039;-54
2023/12/10 12:15:13;;;;;;;6.47;1.35;;;;;;;;;;4952179;28;20411;-54
2023/12/10 12:17:43;;;;;;;10.77;1.63;;;;;;;;;;4949570;28;20035;-55
2023/12/10 12:20:16;;;;;;;9.50;1.60;;;;;;;;;;4947967;29;20383;-56
2023/12/10 12:22:43;;;;;;;7.35;2.60;;;;;;;;;;4950928;28;20543;-53
2023/12/10 12:25:09;;;;;;;7.30;1.20;;;;;;;;;;4935558;29;20044;-55
2023/12/10 12:27:35;;;;;;;6.35;1.63;;;;;;;;;;4948870;28;20062;-53
2023/12/10 12:30:02;;;;;;;6.97;1.35;;;;;;;;;;4950631;28;20056;-54
2023/12/10 12:32:28;;;;;;;5.18;1.17;;;;;;;;;;4952413;28;20285;-55
2023/12/10 12:34:55;;;;;;;6.57;1.73;;;;;;;;;;4949567;28;20038;-60
2023/12/10 12:37:21;;;;;;;6.72;1.10;;;;;;;;;;4948861;28;20051;-55
2023/12/10 12:39:47;;;;;;;9.82;1.88;;;;;;;;;;4947876;28;20027;-59
2023/12/10 12:42:13;;;;;;;7.30;1.55;;;;;;;;;;4952863;28;20116;-54
2023/12/10 12:44:40;;;;;;;9.77;1.83;;;;;;;;;;4920183;29;20038;-57
2023/12/10 12:47:06;;;;;;;6.68;1.20;;;;;;;;;;4946507;29;20047;-58
2023/12/10 12:49:33;;;;;;;7.32;1.77;;;;;;;;;;4936949;29;20406;-59
2023/12/10 12:51:59;;;;;;;8.82;1.92;;;;;;;;;;4954745;28;20431;-55
2023/12/10 12:54:26;;;;;;;5.55;1.45;;;;;;;;;;4953470;28;20046;-57
2023/12/10 12:56:52;;;;;;;5.07;1.20;;;;;;;;;;4919858;29;20047;-54
2023/12/10 12:59:18;;;;;;;4.88;1.25;;;;;;;;;;4937905;28;20051;-55
2023/12/10 13:01:44;;;;;;;6.95;1.17;;;;;;;;;;4953442;28;20047;-57
2023/12/10 13:04:11;;;;;;;4.82;1.00;;;;;;;;;;4950541;28;20406;-55
2023/12/10 13:06:37;;;;;;;5.25;1.45;;;;;;;;;;4934678;29;20050;-56
2023/12/10 13:09:03;;;;;;;7.20;1.35;;;;;;;;;;4948862;28;20055;-58
2023/12/10 13:11:29;;;;;;;5.70;1.00;;;;;;;;;;4919392;28;20043;-56
2023/12/10 13:13:56;;;;;;;7.72;1.73;;;;;;;;;;4950277;28;20051;-55
2023/12/10 13:16:22;;;;;;;7.25;1.13;;;;;;;;;;4915619;29;20063;-56
2023/12/10 13:18:48;;;;;;;6.65;1.50;;;;;;;;;;4950399;28;20044;-52
2023/12/10 13:21:15;;;;;;;5.90;1.33;;;;;;;;;;4952618;28;20031;-55
2023/12/10 13:23:41;;;;;;;6.15;1.35;;;;;;;;;;4954260;28;20038;-56
2023/12/10 13:26:07;;;;;;;6.00;1.13;;;;;;;;;;4957130;28;20051;-57
2023/12/10 13:28:33;;;;;;;3.83;0.98;;;;;;;;;;4956505;28;20050;-55
2023/12/10 13:31:00;;;;;;;10.07;1.23;;;;;;;;;;4952197;28;20066;-55
2023/12/10 13:33:27;;;;;;;4.00;1.38;;;;;;;;;;4953422;28;20047;-55
2023/12/10 13:35:53;;;;;;;6.00;1.38;;;;;;;;;;4954246;28;20522;-55
2023/12/10 13:38:20;;;;;;;8.20;1.42;;;;;;;;;;4952588;28;20051;-56
2023/12/10 13:40:47;;;;;;;6.20;1.40;;;;;;;;;;4954652;28;20411;-53
2023/12/10 13:43:14;;;;;;;5.60;1.10;;;;;;;;;;4937855;28;20046;-56
2023/12/10 13:45:42;;;;;;;3.60;1.00;;;;;;;;;;4936365;29;20038;-52
2023/12/10 13:48:08;;;;;;;8.60;1.90;;;;;;;;;;4932013;29;20043;-55
2023/12/10 13:50:35;;;;;;;5.20;1.40;;;;;;;;;;4953925;29;20051;-52
2023/12/10 13:53:01;;;;;;;7.20;1.70;;;;;;;;;;4953073;28;20402;-54
2023/12/10 13:55:28;;;;;;;10.50;2.00;;;;;;;;;;4950984;28;20035;-53
2023/12/10 13:57:57;;;;;;;9.00;1.45;;;;;;;;;;4954441;28;20054;-56
2023/12/10 14:00:24;;;;;;;8.73;1.15;;;;;;;;;;4949929;29;20046;-53
2023/12/10 14:02:51;;;;;;;8.02;1.73;;;;;;;;;;4952563;28;20031;-54
2023/12/10 14:05:17;;;;;;;8.77;1.63;;;;;;;;;;4952937;28;20023;-54
2023/12/10 14:07:46;;;;;;;6.95;1.60;;;;;;;;;;4950598;28;20043;-56
2023/12/10 14:10:13;;;;;;;6.38;1.20;;;;;;;;;;4952856;28;20035;-54
2023/12/10 14:12:39;;;;;;;11.73;3.30;;;;;;;;;;4954931;28;20055;-51
2023/12/10 14:15:06;;;;;;;18.70;4.68;;;;;;;;;;4938705;29;20036;-55
2023/12/10 14:17:32;;;;;;;9.73;2.63;;;;;;;;;;4953060;28;20051;-55
2023/12/10 14:19:59;;;;;;;8.52;3.05;;;;;;;;;;4949851;28;20050;-54
2023/12/10 14:22:25;;;;;;;8.40;2.35;;;;;;;;;;4952165;28;20055;-54
2023/12/10 14:24:51;;;;;;;11.00;2.47;;;;;;;;;;4952766;28;20398;-56
2023/12/10 14:27:17;;;;;;;9.18;2.00;;;;;;;;;;4953082;28;20049;-57
2023/12/10 14:29:44;;;;;;;7.68;1.70;;;;;;;;;;4949266;28;20043;-56
2023/12/10 14:32:11;;;;;;;9.02;1.40;;;;;;;;;;4917844;28;20031;-56
2023/12/10 14:34:38;;;;;;;9.00;1.67;;;;;;;;;;4949893;28;20043;-59